Dodge County

Airport
ICAO code: 
KUNU
Summary
ICAO Region: 
NAM
Territory: 
Location: 
Juneau, Wisconsin,
Coordinates: 
Aerial View: 
43° 25' 35.765" N, 88° 42' 11.525" W
Metar
Observation
KUNU 020915Z AUTO 24007KT 10SM CLR 07/02 A2959 RMK AO2 T00660019
Station
Juneau, Dodge County Airport
Date/Time
2021-12-02 09:15:00
Wind direction
240°
Wind speed
07 kts
Lowest cloud amount
n/a
Temperature
6.6°C
Dew point
1.9°C
Humidity
71%
Weather condition
n/a

Description

Dodge County Airport is a public airport located north of Juneau, Wisconsin.

Climatology

Humid continental climate (Köppen climate classification Dfa) - characterized by four seasons: cold, windy, snowy winters, mild springs, hot, humid summers, and crisp and relatively short autumns. Precipitation reaches its lowest in January and February and peaks in summer and latter half of spring.

Runways

Designator Length Width Surface Rops
2/20 1227 23 ASP No/No
8/26 1542 30 ASP No/No
Airport map: 
Aerial View: 

SKYbrary Partners:

Safety knowledge contributed by: